createdAt,value
2022-07-31T00:02:23.675Z,3.20
2022-07-31T00:05:27.573Z,3.20
2022-07-31T00:08:30.996Z,3.33
2022-07-31T00:11:35.771Z,3.35
2022-07-31T00:14:39.288Z,3.35
2022-07-31T00:17:44.446Z,2.80
2022-07-31T00:20:48.941Z,3.10
2022-07-31T00:23:52.341Z,3.00
2022-07-31T00:26:57.137Z,3.05
2022-07-31T00:30:00.455Z,2.80
2022-07-31T00:33:03.735Z,2.90
2022-07-31T00:36:07.290Z,3.20
2022-07-31T00:39:11.023Z,3.65
2022-07-31T00:42:20.364Z,3.35
2022-07-31T00:45:29.118Z,2.90
2022-07-31T00:48:35.698Z,3.67
2022-07-31T00:51:41.468Z,3.10
2022-07-31T00:54:44.802Z,3.20
2022-07-31T00:57:49.542Z,3.55
2022-07-31T01:00:53.142Z,3.75
2022-07-31T01:03:56.688Z,3.63
2022-07-31T01:07:01.450Z,3.85
2022-07-31T01:10:10.820Z,3.38
2022-07-31T01:13:24.376Z,3.58
2022-07-31T01:16:31.961Z,3.50
2022-07-31T01:19:42.809Z,4.05
2022-07-31T01:23:25.369Z,3.72
2022-07-31T01:26:57.283Z,3.20
2022-07-31T01:30:04.278Z,4.15
2022-07-31T01:33:12.493Z,3.67
2022-07-31T01:36:21.748Z,5.15
2022-07-31T01:39:26.324Z,5.05
2022-07-31T01:42:40.699Z,5.28
2022-07-31T01:45:48.171Z,5.07
2022-07-31T01:48:53.989Z,5.30
2022-07-31T01:52:04.265Z,5.50
2022-07-31T01:55:12.979Z,5.90
2022-07-31T01:58:20.365Z,6.20
2022-07-31T02:01:27.533Z,5.30
2022-07-31T02:04:33.313Z,5.43
2022-07-31T02:07:39.169Z,6.03
2022-07-31T02:10:45.791Z,6.43
2022-07-31T02:13:50.430Z,6.22
2022-07-31T02:16:56.344Z,6.25
2022-07-31T02:20:15.430Z,6.15
2022-07-31T02:23:19.451Z,6.78
2022-07-31T02:26:24.036Z,6.35
2022-07-31T02:29:32.652Z,6.43
2022-07-31T02:32:39.733Z,5.63
2022-07-31T02:35:45.707Z,6.10
2022-07-31T02:38:53.038Z,5.72
2022-07-31T02:41:58.174Z,5.32
2022-07-31T02:45:02.318Z,5.82
2022-07-31T02:48:07.999Z,5.75
2022-07-31T02:51:12.479Z,6.10
2022-07-31T02:54:18.890Z,6.35
2022-07-31T02:57:22.464Z,6.07
2022-07-31T03:00:27.201Z,6.32
2022-07-31T03:03:33.320Z,5.63
2022-07-31T03:06:36.914Z,5.30
2022-07-31T03:09:40.239Z,5.22
2022-07-31T03:13:08.016Z,5.55
2022-07-31T03:16:12.705Z,5.78
2022-07-31T03:19:17.847Z,5.45
2022-07-31T03:22:21.312Z,6.05
2022-07-31T03:25:25.295Z,5.43
2022-07-31T03:28:29.439Z,5.57
2022-07-31T03:31:32.789Z,5.85
2022-07-31T03:34:37.555Z,5.85
2022-07-31T03:37:40.992Z,5.20
2022-07-31T03:40:44.389Z,5.25
2022-07-31T03:43:49.333Z,5.60
2022-07-31T03:46:55.804Z,6.15
2022-07-31T03:50:03.040Z,5.93
2022-07-31T03:53:08.548Z,6.10
2022-07-31T03:56:20.049Z,6.20
2022-07-31T03:59:23.849Z,6.00
2022-07-31T04:02:27.842Z,5.82
2022-07-31T04:05:47.593Z,5.20
2022-07-31T04:08:51.166Z,5.80
2022-07-31T04:11:54.626Z,4.57
2022-07-31T04:14:58.060Z,5.03
2022-07-31T04:18:01.315Z,5.05
2022-07-31T04:21:12.622Z,5.80
2022-07-31T04:24:18.318Z,5.30
2022-07-31T04:27:48.339Z,5.20
2022-07-31T04:30:53.455Z,5.05
2022-07-31T04:33:57.242Z,5.97
2022-07-31T04:37:02.262Z,5.75
2022-07-31T04:40:06.258Z,5.00
2022-07-31T04:43:12.865Z,5.05
2022-07-31T04:46:17.774Z,5.30
2022-07-31T04:49:21.848Z,4.78
2022-07-31T04:52:26.682Z,4.72
2022-07-31T04:55:32.997Z,4.45
2022-07-31T04:58:36.543Z,4.55
2022-07-31T05:01:41.336Z,5.93
2022-07-31T05:04:44.873Z,5.43
2022-07-31T05:07:57.643Z,4.72
2022-07-31T05:11:23.617Z,4.50
2022-07-31T05:14:27.253Z,4.50
2022-07-31T05:17:31.015Z,4.22
2022-07-31T05:21:06.315Z,4.30
2022-07-31T05:24:33.573Z,3.90
2022-07-31T05:27:57.781Z,3.75
2022-07-31T05:31:02.949Z,3.53
2022-07-31T05:34:07.295Z,3.63
2022-07-31T05:37:10.642Z,3.35
2022-07-31T05:40:18.093Z,3.75
2022-07-31T05:43:40.330Z,3.92
2022-07-31T05:49:54.629Z,3.50
2022-07-31T05:52:58.413Z,3.50
2022-07-31T05:56:21.544Z,3.33
2022-07-31T05:59:27.657Z,4.07
2022-07-31T06:02:31.010Z,3.35
2022-07-31T06:05:44.784Z,3.22
2022-07-31T06:08:48.121Z,3.33
2022-07-31T06:11:52.845Z,3.25
2022-07-31T06:14:56.299Z,3.70
2022-07-31T06:18:09.472Z,3.25
2022-07-31T06:24:15.941Z,3.30
2022-07-31T06:27:33.381Z,3.88
2022-07-31T06:30:38.557Z,3.30
2022-07-31T06:33:43.531Z,3.70
2022-07-31T06:36:53.002Z,3.90
2022-07-31T06:39:58.455Z,4.20
2022-07-31T06:43:25.063Z,4.38
2022-07-31T06:46:49.319Z,4.40
2022-07-31T06:50:28.162Z,5.03
2022-07-31T06:53:47.122Z,5.13
2022-07-31T06:56:50.444Z,5.10
2022-07-31T06:59:55.224Z,5.63
2022-07-31T07:02:58.620Z,5.28
2022-07-31T07:06:03.571Z,5.13
2022-07-31T07:09:08.082Z,5.38
2022-07-31T07:12:16.604Z,5.40
2022-07-31T07:15:24.044Z,5.45
2022-07-31T07:18:27.429Z,5.63
2022-07-31T07:21:33.454Z,5.78
2022-07-31T07:24:36.789Z,6.85
2022-07-31T07:27:45.715Z,7.00
2022-07-31T07:30:50.838Z,7.00
2022-07-31T07:33:56.270Z,6.90
2022-07-31T07:37:00.534Z,7.22
2022-07-31T07:40:08.389Z,7.10
2022-07-31T07:43:11.864Z,6.97
2022-07-31T07:46:16.946Z,6.28
2022-07-31T07:49:26.674Z,6.88
2022-07-31T07:52:52.852Z,6.75
2022-07-31T07:56:19.612Z,6.70
2022-07-31T07:59:55.669Z,7.20
2022-07-31T08:03:48.262Z,6.95
2022-07-31T08:06:42.840Z,6.90
2022-07-31T08:09:46.380Z,6.88
2022-07-31T08:12:50.267Z,7.00
2022-07-31T08:16:02.861Z,6.80
2022-07-31T08:19:11.339Z,7.07
2022-07-31T08:22:14.988Z,7.22
2022-07-31T08:25:18.400Z,6.80
2022-07-31T08:28:24.138Z,6.60
2022-07-31T08:31:28.233Z,7.13
2022-07-31T08:35:02.366Z,6.55
2022-07-31T08:38:05.937Z,5.82
2022-07-31T08:41:16.275Z,6.18
2022-07-31T08:44:26.429Z,7.00
2022-07-31T08:47:37.275Z,6.40
2022-07-31T08:50:53.477Z,6.82
2022-07-31T08:54:21.369Z,6.38
2022-07-31T08:57:26.885Z,6.82
2022-07-31T09:00:30.346Z,6.85
2022-07-31T09:03:35.352Z,7.32
2022-07-31T09:06:42.599Z,7.45
2022-07-31T09:09:51.433Z,6.97
2022-07-31T09:12:57.887Z,7.90
2022-07-31T09:16:06.224Z,7.50
2022-07-31T09:19:54.034Z,8.73
2022-07-31T09:22:35.454Z,8.45
2022-07-31T09:25:41.913Z,8.93
2022-07-31T09:28:48.994Z,8.60
2022-07-31T09:31:52.397Z,8.38
2022-07-31T09:35:15.736Z,7.25
2022-07-31T09:38:21.236Z,7.22
2022-07-31T09:42:01.244Z,6.70
2022-07-31T09:45:26.183Z,6.40
2022-07-31T09:48:31.401Z,6.43
2022-07-31T09:51:40.736Z,6.60
2022-07-31T09:54:46.617Z,7.20
2022-07-31T09:58:03.997Z,6.63
2022-07-31T10:01:14.444Z,6.60
2022-07-31T10:04:19.415Z,6.30
2022-07-31T10:07:32.693Z,5.13
2022-07-31T10:10:54.158Z,5.25
2022-07-31T10:14:10.651Z,5.10
2022-07-31T10:17:21.460Z,4.60
2022-07-31T10:20:55.990Z,5.13
2022-07-31T10:24:09.260Z,5.18
2022-07-31T10:27:16.801Z,5.05
2022-07-31T10:30:22.784Z,4.38
2022-07-31T10:33:47.224Z,5.05
2022-07-31T10:37:14.785Z,4.45
2022-07-31T10:40:38.009Z,4.10
2022-07-31T10:43:49.284Z,3.95
2022-07-31T10:47:01.357Z,4.32
2022-07-31T10:50:22.913Z,3.67
2022-07-31T10:53:55.217Z,3.88
2022-07-31T10:57:23.768Z,3.90
2022-07-31T11:00:47.300Z,4.38
2022-07-31T11:04:10.957Z,3.90
2022-07-31T11:07:44.486Z,5.20
2022-07-31T11:11:03.488Z,5.45
2022-07-31T11:14:35.046Z,4.45
2022-07-31T11:18:20.913Z,5.03
2022-07-31T11:21:40.944Z,4.53
2022-07-31T11:24:54.223Z,3.47
2022-07-31T11:27:59.052Z,3.55
2022-07-31T11:31:03.947Z,3.50
2022-07-31T11:34:08.752Z,3.42
2022-07-31T11:37:17.469Z,3.33
2022-07-31T11:40:22.492Z,4.00
2022-07-31T11:43:31.930Z,3.85
2022-07-31T11:46:38.080Z,4.10
2022-07-31T11:49:49.015Z,4.00
2022-07-31T11:53:03.889Z,4.15
2022-07-31T11:56:07.347Z,4.20
2022-07-31T11:59:45.963Z,4.47
2022-07-31T12:02:34.118Z,3.78
2022-07-31T12:05:47.327Z,4.05
2022-07-31T12:08:52.263Z,3.97
2022-07-31T12:11:56.154Z,4.90
2022-07-31T12:14:59.453Z,4.15
2022-07-31T12:18:05.256Z,5.03
2022-07-31T12:21:10.373Z,4.60
2022-07-31T12:24:14.649Z,5.00
2022-07-31T12:27:19.393Z,4.88
2022-07-31T12:30:29.629Z,5.20
2022-07-31T12:33:42.112Z,5.60
2022-07-31T12:36:46.968Z,5.50
2022-07-31T12:40:00.730Z,5.88
2022-07-31T12:43:05.122Z,6.25
2022-07-31T12:46:08.432Z,5.90
2022-07-31T12:49:11.912Z,6.38
2022-07-31T12:52:16.963Z,5.65
2022-07-31T12:55:20.603Z,6.03
2022-07-31T12:58:23.932Z,6.60
2022-07-31T13:01:27.345Z,7.15
2022-07-31T13:04:30.758Z,6.53
2022-07-31T13:07:38.002Z,6.50
2022-07-31T13:10:41.435Z,6.82
2022-07-31T13:13:44.770Z,7.25
2022-07-31T13:16:48.906Z,6.97
2022-07-31T13:19:52.344Z,6.88
2022-07-31T13:22:59.158Z,7.72
2022-07-31T13:26:02.560Z,7.38
2022-07-31T13:29:08.732Z,7.43
2022-07-31T13:32:12.360Z,8.05
2022-07-31T13:35:23.919Z,7.32
2022-07-31T13:38:33.302Z,7.60
2022-07-31T13:41:38.959Z,7.18
2022-07-31T13:44:45.727Z,7.88
2022-07-31T13:47:52.906Z,8.02
2022-07-31T13:50:57.497Z,7.53
2022-07-31T13:54:02.274Z,7.55
2022-07-31T13:57:06.623Z,7.13
2022-07-31T14:00:11.459Z,7.22
2022-07-31T14:03:15.266Z,7.60
2022-07-31T14:06:21.848Z,7.70
2022-07-31T14:09:28.040Z,7.78
2022-07-31T14:12:31.354Z,8.23
2022-07-31T14:15:34.721Z,8.38
2022-07-31T14:18:37.984Z,8.80
2022-07-31T14:21:41.369Z,8.02
2022-07-31T14:25:01.423Z,9.30
2022-07-31T14:28:04.922Z,8.63
2022-07-31T14:31:08.296Z,8.52
2022-07-31T14:34:13.861Z,9.30
2022-07-31T14:37:17.273Z,8.98
2022-07-31T14:40:22.415Z,8.90
2022-07-31T14:43:25.846Z,8.75
2022-07-31T14:46:29.225Z,9.20
2022-07-31T14:50:09.606Z,9.98
2022-07-31T14:52:56.847Z,9.27
2022-07-31T14:56:04.909Z,9.52
2022-07-31T14:59:17.341Z,9.35
2022-07-31T15:02:22.813Z,9.60
2022-07-31T15:06:39.557Z,9.70
2022-07-31T15:08:49.955Z,9.80
2022-07-31T15:11:59.056Z,9.82
2022-07-31T15:15:05.291Z,9.45
2022-07-31T15:18:40.893Z,9.32
2022-07-31T15:22:09.812Z,8.60
2022-07-31T15:25:19.618Z,9.05
2022-07-31T15:28:24.314Z,9.57
2022-07-31T15:31:27.685Z,9.32
2022-07-31T15:34:32.690Z,9.85
2022-07-31T15:37:37.329Z,10.13
2022-07-31T15:40:40.697Z,9.93
2022-07-31T15:43:45.486Z,10.15
2022-07-31T15:46:48.857Z,10.18
2022-07-31T15:49:52.226Z,10.68
2022-07-31T15:52:55.506Z,11.30
2022-07-31T15:55:58.954Z,10.80
2022-07-31T15:59:03.808Z,11.13
2022-07-31T16:02:07.139Z,10.95
2022-07-31T16:05:20.046Z,11.05
2022-07-31T16:08:35.851Z,10.88
2022-07-31T16:12:02.935Z,12.23
2022-07-31T16:15:08.002Z,11.15
2022-07-31T16:18:18.475Z,11.77
2022-07-31T16:21:21.973Z,12.00
2022-07-31T16:24:25.345Z,11.23
2022-07-31T16:27:28.722Z,11.05
2022-07-31T16:30:33.634Z,10.63
2022-07-31T16:33:36.999Z,10.43
2022-07-31T16:36:41.338Z,11.02
2022-07-31T16:39:45.578Z,11.10
2022-07-31T16:42:50.655Z,11.85
2022-07-31T16:45:56.851Z,11.02
2022-07-31T16:49:00.149Z,11.65
2022-07-31T16:52:09.857Z,11.05
2022-07-31T16:55:13.151Z,10.50
2022-07-31T16:58:16.494Z,10.65
2022-07-31T17:01:58.064Z,10.75
2022-07-31T17:04:44.987Z,10.57
2022-07-31T17:07:48.342Z,10.75
2022-07-31T17:10:54.593Z,11.10
2022-07-31T17:13:58.200Z,11.43
2022-07-31T17:17:03.284Z,11.05
2022-07-31T17:20:08.013Z,11.98
2022-07-31T17:23:11.430Z,11.90
2022-07-31T17:26:21.444Z,12.05
2022-07-31T17:29:25.548Z,11.32
2022-07-31T17:32:32.253Z,11.80
2022-07-31T17:35:35.515Z,11.45
2022-07-31T17:38:38.895Z,11.13
2022-07-31T17:41:42.227Z,11.52
2022-07-31T17:44:46.551Z,11.57
2022-07-31T17:48:02.552Z,11.13
2022-07-31T17:51:07.290Z,11.70
2022-07-31T17:54:10.628Z,11.88
2022-07-31T17:57:13.950Z,11.63
2022-07-31T18:00:18.034Z,10.77
2022-07-31T18:03:22.753Z,8.52
2022-07-31T18:06:26.228Z,6.55
2022-07-31T18:09:30.197Z,5.90
2022-07-31T18:12:56.642Z,6.30
2022-07-31T18:16:00.479Z,6.50
2022-07-31T18:19:05.357Z,7.03
2022-07-31T18:22:08.744Z,6.43
2022-07-31T18:25:12.431Z,6.80
2022-07-31T18:28:15.693Z,6.82
2022-07-31T18:31:34.279Z,6.70
2022-07-31T18:34:40.566Z,6.22
2022-07-31T18:37:43.922Z,6.13
2022-07-31T18:40:47.409Z,6.82
2022-07-31T18:43:50.841Z,6.22
2022-07-31T18:46:54.266Z,6.00
2022-07-31T18:51:03.192Z,6.45
2022-07-31T18:53:22.428Z,6.78
2022-07-31T18:56:26.368Z,6.35
2022-07-31T18:59:29.670Z,6.03
2022-07-31T19:02:32.948Z,6.85
2022-07-31T19:05:37.731Z,6.47
2022-07-31T19:08:41.034Z,6.47
2022-07-31T19:11:51.822Z,7.05
2022-07-31T19:15:10.816Z,7.03
2022-07-31T19:18:14.254Z,7.18
2022-07-31T19:21:42.239Z,7.50
2022-07-31T19:24:46.303Z,8.45
2022-07-31T19:27:50.428Z,8.65
2022-07-31T19:30:53.952Z,8.10
2022-07-31T19:33:57.264Z,7.88
2022-07-31T19:37:02.357Z,7.97
2022-07-31T19:40:08.722Z,7.65
2022-07-31T19:43:12.804Z,7.28
2022-07-31T19:46:17.853Z,7.32
2022-07-31T19:49:21.362Z,7.10
2022-07-31T19:52:26.239Z,6.43
2022-07-31T19:55:29.622Z,6.82
2022-07-31T19:58:41.439Z,7.50
2022-07-31T20:01:44.856Z,7.05
2022-07-31T20:04:48.213Z,7.43
2022-07-31T20:07:53.004Z,7.57
2022-07-31T20:10:57.742Z,7.40
2022-07-31T20:14:01.248Z,7.97
2022-07-31T20:17:04.715Z,7.90
2022-07-31T20:20:15.572Z,9.05
2022-07-31T20:23:20.901Z,8.48
2022-07-31T20:26:25.156Z,7.80
2022-07-31T20:29:28.556Z,10.35
2022-07-31T20:32:32.073Z,7.68
2022-07-31T20:35:48.412Z,7.60
2022-07-31T20:38:54.694Z,7.60
2022-07-31T20:41:58.153Z,7.50
2022-07-31T20:45:01.643Z,7.78
2022-07-31T20:48:05.332Z,7.53
2022-07-31T20:51:13.234Z,8.05
2022-07-31T20:54:17.893Z,7.90
2022-07-31T20:57:37.777Z,8.10
2022-07-31T21:00:41.111Z,8.73
2022-07-31T21:03:44.494Z,8.15
2022-07-31T21:06:47.920Z,8.23
2022-07-31T21:09:52.613Z,8.38
2022-07-31T21:12:56.220Z,8.50
2022-07-31T21:15:59.878Z,8.90
2022-07-31T21:19:03.157Z,8.35
2022-07-31T21:22:06.759Z,8.65
2022-07-31T21:25:12.673Z,8.57
2022-07-31T21:28:16.482Z,8.15
2022-07-31T21:31:20.380Z,7.57
2022-07-31T21:34:23.994Z,8.88
2022-07-31T21:37:27.937Z,8.05
2022-07-31T21:40:45.392Z,8.93
2022-07-31T21:43:59.178Z,8.88
2022-07-31T21:47:04.009Z,8.68
2022-07-31T21:50:10.082Z,8.80
2022-07-31T21:53:15.590Z,9.25
2022-07-31T21:56:20.407Z,8.00
2022-07-31T21:59:23.994Z,8.68
2022-07-31T22:02:27.285Z,8.55
2022-07-31T22:05:48.203Z,9.27
2022-07-31T22:08:51.473Z,8.85
2022-07-31T22:12:00.869Z,8.65
2022-07-31T22:15:06.024Z,9.25
2022-07-31T22:18:10.141Z,8.73
2022-07-31T22:21:14.184Z,8.95
2022-07-31T22:24:18.719Z,9.35
2022-07-31T22:27:42.342Z,8.68
2022-07-31T22:30:46.360Z,8.48
2022-07-31T22:33:50.728Z,8.85
2022-07-31T22:36:54.497Z,9.18
2022-07-31T22:39:59.713Z,8.57
2022-07-31T22:43:04.726Z,8.15
2022-07-31T22:46:28.455Z,8.23
2022-07-31T22:49:36.709Z,7.80
2022-07-31T22:52:40.081Z,8.07
2022-07-31T22:55:43.499Z,8.38
2022-07-31T22:58:48.236Z,8.55
2022-07-31T23:01:51.576Z,7.78
2022-07-31T23:04:55.124Z,7.35
2022-07-31T23:07:58.494Z,7.85
2022-07-31T23:11:01.881Z,7.50
2022-07-31T23:14:06.588Z,7.13
2022-07-31T23:17:09.886Z,7.38
2022-07-31T23:20:26.326Z,7.13
2022-07-31T23:23:29.706Z,6.85
2022-07-31T23:26:33.075Z,7.10
2022-07-31T23:29:41.718Z,6.93
2022-07-31T23:32:45.124Z,7.30
2022-07-31T23:35:48.502Z,7.22
2022-07-31T23:38:52.239Z,6.60
2022-07-31T23:42:12.953Z,7.40
2022-07-31T23:45:20.659Z,6.38
2022-07-31T23:48:29.227Z,7.28
2022-07-31T23:51:34.658Z,7.20
2022-07-31T23:54:38.286Z,6.22
2022-07-31T23:57:41.720Z,6.55
